sensor_id;sensor_type;location;lat;lon;timestamp;temperature;humidity
10121;DHT22;5100;45.176;5.714;2022-09-12T00:00:43;21.50;64.70
10121;DHT22;5100;45.176;5.714;2022-09-12T00:03:09;21.40;64.50
10121;DHT22;5100;45.176;5.714;2022-09-12T00:05:43;21.40;64.60
10121;DHT22;5100;45.176;5.714;2022-09-12T00:08:11;21.40;64.60
10121;DHT22;5100;45.176;5.714;2022-09-12T00:10:42;21.40;64.70
10121;DHT22;5100;45.176;5.714;2022-09-12T00:13:09;21.40;64.70
10121;DHT22;5100;45.176;5.714;2022-09-12T00:15:39;21.40;64.60
10121;DHT22;5100;45.176;5.714;2022-09-12T00:18:08;21.40;64.60
10121;DHT22;5100;45.176;5.714;2022-09-12T00:20:34;21.40;64.60
10121;DHT22;5100;45.176;5.714;2022-09-12T00:23:01;21.40;64.70
10121;DHT22;5100;45.176;5.714;2022-09-12T00:25:27;21.40;64.80
10121;DHT22;5100;45.176;5.714;2022-09-12T00:27:55;21.40;64.80
10121;DHT22;5100;45.176;5.714;2022-09-12T00:30:22;21.30;64.80
10121;DHT22;5100;45.176;5.714;2022-09-12T00:32:48;21.40;64.90
10121;DHT22;5100;45.176;5.714;2022-09-12T00:35:16;21.30;64.90
10121;DHT22;5100;45.176;5.714;2022-09-12T00:37:42;21.30;65.00
10121;DHT22;5100;45.176;5.714;2022-09-12T00:40:08;21.30;65.00
10121;DHT22;5100;45.176;5.714;2022-09-12T00:42:34;21.30;65.20
10121;DHT22;5100;45.176;5.714;2022-09-12T00:45:01;21.30;65.30
10121;DHT22;5100;45.176;5.714;2022-09-12T00:47:28;21.30;65.30
10121;DHT22;5100;45.176;5.714;2022-09-12T00:50:02;21.30;65.60
10121;DHT22;5100;45.176;5.714;2022-09-12T00:52:40;21.20;65.70
10121;DHT22;5100;45.176;5.714;2022-09-12T00:55:15;21.20;65.90
10121;DHT22;5100;45.176;5.714;2022-09-12T00:57:49;21.20;66.00
10121;DHT22;5100;45.176;5.714;2022-09-12T01:00:18;21.20;66.20
10121;DHT22;5100;45.176;5.714;2022-09-12T01:02:52;21.20;66.40
10121;DHT22;5100;45.176;5.714;2022-09-12T01:05:20;21.20;66.40
10121;DHT22;5100;45.176;5.714;2022-09-12T01:07:49;21.20;66.40
10121;DHT22;5100;45.176;5.714;2022-09-12T01:10:17;21.10;66.10
10121;DHT22;5100;45.176;5.714;2022-09-12T01:12:44;21.10;65.90
10121;DHT22;5100;45.176;5.714;2022-09-12T01:15:11;21.10;65.70
10121;DHT22;5100;45.176;5.714;2022-09-12T01:18:05;21.10;65.50
10121;DHT22;5100;45.176;5.714;2022-09-12T01:20:36;21.10;65.40
10121;DHT22;5100;45.176;5.714;2022-09-12T01:34:23;21.00;65.00
10121;DHT22;5100;45.176;5.714;2022-09-12T01:42:18;20.90;65.00
10121;DHT22;5100;45.176;5.714;2022-09-12T01:45:06;20.90;65.00
10121;DHT22;5100;45.176;5.714;2022-09-12T01:47:50;20.90;65.10
10121;DHT22;5100;45.176;5.714;2022-09-12T01:50:21;20.90;65.10
10121;DHT22;5100;45.176;5.714;2022-09-12T01:53:21;20.90;65.10
10121;DHT22;5100;45.176;5.714;2022-09-12T01:58:46;20.90;65.10
10121;DHT22;5100;45.176;5.714;2022-09-12T02:01:22;20.90;65.70
10121;DHT22;5100;45.176;5.714;2022-09-12T02:03:59;20.80;66.00
10121;DHT22;5100;45.176;5.714;2022-09-12T02:06:32;20.80;66.50
10121;DHT22;5100;45.176;5.714;2022-09-12T02:09:10;20.80;66.70
10121;DHT22;5100;45.176;5.714;2022-09-12T02:11:40;20.80;66.80
10121;DHT22;5100;45.176;5.714;2022-09-12T02:14:12;20.80;66.80
10121;DHT22;5100;45.176;5.714;2022-09-12T02:16:47;20.80;67.00
10121;DHT22;5100;45.176;5.714;2022-09-12T02:19:23;20.80;67.00
10121;DHT22;5100;45.176;5.714;2022-09-12T02:21:54;20.80;67.00
10121;DHT22;5100;45.176;5.714;2022-09-12T02:24:35;20.80;67.20
10121;DHT22;5100;45.176;5.714;2022-09-12T02:27:08;20.80;67.20
10121;DHT22;5100;45.176;5.714;2022-09-12T02:29:35;20.80;67.30
10121;DHT22;5100;45.176;5.714;2022-09-12T02:32:08;20.80;67.40
10121;DHT22;5100;45.176;5.714;2022-09-12T02:40:32;20.70;67.40
10121;DHT22;5100;45.176;5.714;2022-09-12T02:43:00;20.70;67.50
10121;DHT22;5100;45.176;5.714;2022-09-12T02:45:28;20.70;67.50
10121;DHT22;5100;45.176;5.714;2022-09-12T02:48:18;20.70;67.30
10121;DHT22;5100;45.176;5.714;2022-09-12T02:50:45;20.70;67.30
10121;DHT22;5100;45.176;5.714;2022-09-12T02:53:12;20.60;67.20
10121;DHT22;5100;45.176;5.714;2022-09-12T02:55:39;20.60;67.00
10121;DHT22;5100;45.176;5.714;2022-09-12T02:58:11;20.60;66.90
10121;DHT22;5100;45.176;5.714;2022-09-12T03:03:30;20.60;66.90
10121;DHT22;5100;45.176;5.714;2022-09-12T03:25:21;20.50;66.10
10121;DHT22;5100;45.176;5.714;2022-09-12T03:27:55;20.50;66.40
10121;DHT22;5100;45.176;5.714;2022-09-12T03:30:23;20.50;66.70
10121;DHT22;5100;45.176;5.714;2022-09-12T03:32:52;20.40;67.10
10121;DHT22;5100;45.176;5.714;2022-09-12T03:35:22;20.40;67.40
10121;DHT22;5100;45.176;5.714;2022-09-12T03:37:49;20.40;67.70
10121;DHT22;5100;45.176;5.714;2022-09-12T03:40:16;20.40;67.80
10121;DHT22;5100;45.176;5.714;2022-09-12T03:42:42;20.40;67.80
10121;DHT22;5100;45.176;5.714;2022-09-12T03:45:09;20.40;67.80
10121;DHT22;5100;45.176;5.714;2022-09-12T03:47:36;20.40;67.90
10121;DHT22;5100;45.176;5.714;2022-09-12T03:50:03;20.40;67.80
10121;DHT22;5100;45.176;5.714;2022-09-12T03:52:29;20.40;67.80
10121;DHT22;5100;45.176;5.714;2022-09-12T03:54:55;20.30;67.60
10121;DHT22;5100;45.176;5.714;2022-09-12T03:57:21;20.30;67.60
10121;DHT22;5100;45.176;5.714;2022-09-12T03:59:48;20.30;67.70
10121;DHT22;5100;45.176;5.714;2022-09-12T04:02:17;20.30;67.60
10121;DHT22;5100;45.176;5.714;2022-09-12T04:04:44;20.30;67.70
10121;DHT22;5100;45.176;5.714;2022-09-12T04:07:14;20.30;67.70
10121;DHT22;5100;45.176;5.714;2022-09-12T04:09:40;20.30;67.70
10121;DHT22;5100;45.176;5.714;2022-09-12T04:12:07;20.20;67.70
10121;DHT22;5100;45.176;5.714;2022-09-12T04:14:33;20.20;67.80
10121;DHT22;5100;45.176;5.714;2022-09-12T04:16:59;20.20;67.80
10121;DHT22;5100;45.176;5.714;2022-09-12T04:19:26;20.20;67.70
10121;DHT22;5100;45.176;5.714;2022-09-12T04:21:53;20.20;67.70
10121;DHT22;5100;45.176;5.714;2022-09-12T04:24:19;20.20;67.60
10121;DHT22;5100;45.176;5.714;2022-09-12T04:26:45;20.20;67.50
10121;DHT22;5100;45.176;5.714;2022-09-12T04:29:11;20.20;67.30
10121;DHT22;5100;45.176;5.714;2022-09-12T04:31:38;20.20;67.20
10121;DHT22;5100;45.176;5.714;2022-09-12T04:34:04;20.20;66.90
10121;DHT22;5100;45.176;5.714;2022-09-12T04:36:30;20.30;66.50
10121;DHT22;5100;45.176;5.714;2022-09-12T04:38:58;20.20;66.30
10121;DHT22;5100;45.176;5.714;2022-09-12T04:41:30;20.30;66.20
10121;DHT22;5100;45.176;5.714;2022-09-12T04:44:09;20.30;66.40
10121;DHT22;5100;45.176;5.714;2022-09-12T04:46:40;20.30;66.80
10121;DHT22;5100;45.176;5.714;2022-09-12T04:49:07;20.30;67.30
10121;DHT22;5100;45.176;5.714;2022-09-12T04:51:35;20.30;67.60
10121;DHT22;5100;45.176;5.714;2022-09-12T04:54:04;20.30;67.80
10121;DHT22;5100;45.176;5.714;2022-09-12T04:56:31;20.30;67.90
10121;DHT22;5100;45.176;5.714;2022-09-12T04:58:59;20.30;67.90
10121;DHT22;5100;45.176;5.714;2022-09-12T05:01:27;20.30;68.00
10121;DHT22;5100;45.176;5.714;2022-09-12T05:03:55;20.20;68.00
10121;DHT22;5100;45.176;5.714;2022-09-12T05:06:28;20.20;68.00
10121;DHT22;5100;45.176;5.714;2022-09-12T05:08:55;20.20;68.10
10121;DHT22;5100;45.176;5.714;2022-09-12T05:11:26;20.20;68.10
10121;DHT22;5100;45.176;5.714;2022-09-12T05:13:52;20.20;68.10
10121;DHT22;5100;45.176;5.714;2022-09-12T05:16:19;20.20;68.10
10121;DHT22;5100;45.176;5.714;2022-09-12T05:18:46;20.20;68.10
10121;DHT22;5100;45.176;5.714;2022-09-12T05:21:14;20.20;68.20
10121;DHT22;5100;45.176;5.714;2022-09-12T05:23:41;20.20;68.20
10121;DHT22;5100;45.176;5.714;2022-09-12T05:26:11;20.20;68.10
10121;DHT22;5100;45.176;5.714;2022-09-12T05:28:38;20.20;67.90
10121;DHT22;5100;45.176;5.714;2022-09-12T05:31:11;20.20;67.60
10121;DHT22;5100;45.176;5.714;2022-09-12T05:33:39;20.20;67.30
10121;DHT22;5100;45.176;5.714;2022-09-12T05:36:09;20.20;67.10
10121;DHT22;5100;45.176;5.714;2022-09-12T05:38:36;20.20;66.80
10121;DHT22;5100;45.176;5.714;2022-09-12T05:41:04;20.20;66.70
10121;DHT22;5100;45.176;5.714;2022-09-12T05:43:32;20.20;66.60
10121;DHT22;5100;45.176;5.714;2022-09-12T05:46:04;20.20;66.50
10121;DHT22;5100;45.176;5.714;2022-09-12T05:48:30;20.20;66.50
10121;DHT22;5100;45.176;5.714;2022-09-12T05:51:04;20.20;66.50
10121;DHT22;5100;45.176;5.714;2022-09-12T05:53:31;20.20;66.60
10121;DHT22;5100;45.176;5.714;2022-09-12T05:56:09;20.20;66.70
10121;DHT22;5100;45.176;5.714;2022-09-12T05:58:38;20.20;67.00
10121;DHT22;5100;45.176;5.714;2022-09-12T06:01:09;20.20;67.00
10121;DHT22;5100;45.176;5.714;2022-09-12T06:03:41;20.30;67.10
10121;DHT22;5100;45.176;5.714;2022-09-12T06:06:07;20.30;67.00
10121;DHT22;5100;45.176;5.714;2022-09-12T06:08:34;20.30;66.90
10121;DHT22;5100;45.176;5.714;2022-09-12T06:11:03;20.30;66.60
10121;DHT22;5100;45.176;5.714;2022-09-12T06:13:34;20.30;66.30
10121;DHT22;5100;45.176;5.714;2022-09-12T06:16:04;20.30;65.80
10121;DHT22;5100;45.176;5.714;2022-09-12T06:18:31;20.30;65.70
10121;DHT22;5100;45.176;5.714;2022-09-12T06:21:07;20.40;65.40
10121;DHT22;5100;45.176;5.714;2022-09-12T06:23:35;20.40;65.40
10121;DHT22;5100;45.176;5.714;2022-09-12T06:26:02;20.40;65.20
10121;DHT22;5100;45.176;5.714;2022-09-12T06:28:31;20.50;65.10
10121;DHT22;5100;45.176;5.714;2022-09-12T06:31:21;20.50;65.10
10121;DHT22;5100;45.176;5.714;2022-09-12T06:33:49;20.50;65.00
10121;DHT22;5100;45.176;5.714;2022-09-12T06:36:21;20.60;65.10
10121;DHT22;5100;45.176;5.714;2022-09-12T06:38:52;20.60;65.20
10121;DHT22;5100;45.176;5.714;2022-09-12T06:41:20;20.60;65.40
10121;DHT22;5100;45.176;5.714;2022-09-12T06:43:46;20.60;65.40
10121;DHT22;5100;45.176;5.714;2022-09-12T06:46:12;20.70;65.40
10121;DHT22;5100;45.176;5.714;2022-09-12T06:48:38;20.70;65.50
10121;DHT22;5100;45.176;5.714;2022-09-12T06:51:10;20.70;65.50
10121;DHT22;5100;45.176;5.714;2022-09-12T06:53:38;20.80;65.40
10121;DHT22;5100;45.176;5.714;2022-09-12T06:56:08;20.80;65.40
10121;DHT22;5100;45.176;5.714;2022-09-12T06:58:35;20.80;65.30
10121;DHT22;5100;45.176;5.714;2022-09-12T07:01:02;20.90;65.20
10121;DHT22;5100;45.176;5.714;2022-09-12T07:03:29;20.90;65.10
10121;DHT22;5100;45.176;5.714;2022-09-12T07:05:54;20.90;64.90
10121;DHT22;5100;45.176;5.714;2022-09-12T07:08:21;20.90;64.70
10121;DHT22;5100;45.176;5.714;2022-09-12T07:10:47;20.90;64.60
10121;DHT22;5100;45.176;5.714;2022-09-12T07:13:13;21.00;64.60
10121;DHT22;5100;45.176;5.714;2022-09-12T07:15:40;21.00;64.70
10121;DHT22;5100;45.176;5.714;2022-09-12T07:18:06;21.00;64.60
10121;DHT22;5100;45.176;5.714;2022-09-12T07:20:32;21.00;64.50
10121;DHT22;5100;45.176;5.714;2022-09-12T07:22:58;21.10;64.50
10121;DHT22;5100;45.176;5.714;2022-09-12T07:25:25;21.10;64.40
10121;DHT22;5100;45.176;5.714;2022-09-12T07:27:52;21.20;64.30
10121;DHT22;5100;45.176;5.714;2022-09-12T07:30:18;21.20;64.30
10121;DHT22;5100;45.176;5.714;2022-09-12T07:32:44;21.20;64.10
10121;DHT22;5100;45.176;5.714;2022-09-12T07:35:10;21.30;63.00
10121;DHT22;5100;45.176;5.714;2022-09-12T07:37:36;21.30;62.50
10121;DHT22;5100;45.176;5.714;2022-09-12T07:40:03;21.30;62.40
10121;DHT22;5100;45.176;5.714;2022-09-12T07:42:29;21.30;62.30
10121;DHT22;5100;45.176;5.714;2022-09-12T07:44:56;21.40;62.20
10121;DHT22;5100;45.176;5.714;2022-09-12T07:47:22;21.40;62.10
10121;DHT22;5100;45.176;5.714;2022-09-12T07:49:48;21.40;62.20
10121;DHT22;5100;45.176;5.714;2022-09-12T07:52:15;21.40;62.40
10121;DHT22;5100;45.176;5.714;2022-09-12T07:54:41;21.50;62.60
10121;DHT22;5100;45.176;5.714;2022-09-12T07:57:07;21.50;62.60
10121;DHT22;5100;45.176;5.714;2022-09-12T07:59:33;21.50;62.60
10121;DHT22;5100;45.176;5.714;2022-09-12T08:01:59;21.50;62.20
10121;DHT22;5100;45.176;5.714;2022-09-12T08:04:25;21.50;61.90
10121;DHT22;5100;45.176;5.714;2022-09-12T08:06:51;21.60;62.00
10121;DHT22;5100;45.176;5.714;2022-09-12T08:09:17;21.60;62.10
10121;DHT22;5100;45.176;5.714;2022-09-12T08:11:44;21.60;61.90
10121;DHT22;5100;45.176;5.714;2022-09-12T08:14:10;21.60;62.00
10121;DHT22;5100;45.176;5.714;2022-09-12T08:16:37;21.60;62.00
10121;DHT22;5100;45.176;5.714;2022-09-12T08:19:03;21.60;62.20
10121;DHT22;5100;45.176;5.714;2022-09-12T08:21:31;21.70;62.00
10121;DHT22;5100;45.176;5.714;2022-09-12T08:24:00;21.70;62.20
10121;DHT22;5100;45.176;5.714;2022-09-12T08:26:27;21.70;62.30
10121;DHT22;5100;45.176;5.714;2022-09-12T08:28:53;21.70;62.10
10121;DHT22;5100;45.176;5.714;2022-09-12T08:31:21;21.80;62.10
10121;DHT22;5100;45.176;5.714;2022-09-12T08:33:48;21.80;62.00
10121;DHT22;5100;45.176;5.714;2022-09-12T08:36:19;21.80;61.90
10121;DHT22;5100;45.176;5.714;2022-09-12T08:38:47;21.80;61.90
10121;DHT22;5100;45.176;5.714;2022-09-12T08:52:16;21.90;61.80
10121;DHT22;5100;45.176;5.714;2022-09-12T08:54:43;22.00;61.60
10121;DHT22;5100;45.176;5.714;2022-09-12T08:57:14;22.00;61.60
10121;DHT22;5100;45.176;5.714;2022-09-12T08:59:45;22.00;61.50
10121;DHT22;5100;45.176;5.714;2022-09-12T09:05:16;22.00;61.20
10121;DHT22;5100;45.176;5.714;2022-09-12T09:18:51;22.10;60.40
10121;DHT22;5100;45.176;5.714;2022-09-12T09:21:42;22.20;59.70
10121;DHT22;5100;45.176;5.714;2022-09-12T09:24:12;22.20;60.00
10121;DHT22;5100;45.176;5.714;2022-09-12T09:26:55;22.20;60.10
10121;DHT22;5100;45.176;5.714;2022-09-12T09:29:25;22.20;59.70
10121;DHT22;5100;45.176;5.714;2022-09-12T09:31:55;22.30;59.40
10121;DHT22;5100;45.176;5.714;2022-09-12T09:34:29;22.30;59.30
10121;DHT22;5100;45.176;5.714;2022-09-12T09:37:19;22.30;59.10
10121;DHT22;5100;45.176;5.714;2022-09-12T09:45:21;22.40;58.70
10121;DHT22;5100;45.176;5.714;2022-09-12T09:50:22;22.40;58.60
10121;DHT22;5100;45.176;5.714;2022-09-12T09:52:50;22.40;58.40
10121;DHT22;5100;45.176;5.714;2022-09-12T09:55:22;22.50;58.40
10121;DHT22;5100;45.176;5.714;2022-09-12T09:57:50;22.50;58.20
10121;DHT22;5100;45.176;5.714;2022-09-12T10:00:25;22.50;58.10
10121;DHT22;5100;45.176;5.714;2022-09-12T10:05:50;22.60;58.30
10121;DHT22;5100;45.176;5.714;2022-09-12T10:10:58;22.60;58.30
10121;DHT22;5100;45.176;5.714;2022-09-12T10:16:22;22.60;57.90
10121;DHT22;5100;45.176;5.714;2022-09-12T10:18:50;22.70;58.10
10121;DHT22;5100;45.176;5.714;2022-09-12T10:21:22;22.70;58.30
10121;DHT22;5100;45.176;5.714;2022-09-12T10:26:26;22.70;57.40
10121;DHT22;5100;45.176;5.714;2022-09-12T10:29:02;22.70;57.90
10121;DHT22;5100;45.176;5.714;2022-09-12T10:31:43;22.80;58.50
10121;DHT22;5100;45.176;5.714;2022-09-12T10:34:34;22.80;58.90
10121;DHT22;5100;45.176;5.714;2022-09-12T10:37:07;22.80;59.10
10121;DHT22;5100;45.176;5.714;2022-09-12T10:39:34;22.80;59.20
10121;DHT22;5100;45.176;5.714;2022-09-12T10:42:03;22.90;59.20
10121;DHT22;5100;45.176;5.714;2022-09-12T10:44:33;22.90;59.40
10121;DHT22;5100;45.176;5.714;2022-09-12T10:47:19;22.90;59.30
10121;DHT22;5100;45.176;5.714;2022-09-12T10:49:46;22.90;59.30
10121;DHT22;5100;45.176;5.714;2022-09-12T10:52:30;22.90;59.00
10121;DHT22;5100;45.176;5.714;2022-09-12T10:54:56;23.00;59.00
10121;DHT22;5100;45.176;5.714;2022-09-12T10:57:40;23.00;59.30
10121;DHT22;5100;45.176;5.714;2022-09-12T11:00:16;23.00;59.10
10121;DHT22;5100;45.176;5.714;2022-09-12T11:08:36;23.10;58.50
10121;DHT22;5100;45.176;5.714;2022-09-12T11:14:20;23.10;58.30
10121;DHT22;5100;45.176;5.714;2022-09-12T11:25:03;23.20;58.90
10121;DHT22;5100;45.176;5.714;2022-09-12T11:27:42;23.20;58.40
10121;DHT22;5100;45.176;5.714;2022-09-12T11:30:14;23.20;57.90
10121;DHT22;5100;45.176;5.714;2022-09-12T11:35:31;23.30;57.50
10121;DHT22;5100;45.176;5.714;2022-09-12T11:43:30;23.30;56.60
10121;DHT22;5100;45.176;5.714;2022-09-12T11:46:08;23.30;56.20
10121;DHT22;5100;45.176;5.714;2022-09-12T11:54:34;23.40;55.40
10121;DHT22;5100;45.176;5.714;2022-09-12T12:00:16;23.50;55.30
10121;DHT22;5100;45.176;5.714;2022-09-12T12:08:12;23.60;55.10
10121;DHT22;5100;45.176;5.714;2022-09-12T12:10:47;23.60;54.90
10121;DHT22;5100;45.176;5.714;2022-09-12T12:13:25;23.60;54.80
10121;DHT22;5100;45.176;5.714;2022-09-12T12:19:02;23.70;54.50
10121;DHT22;5100;45.176;5.714;2022-09-12T12:21:36;23.70;54.40
10121;DHT22;5100;45.176;5.714;2022-09-12T12:29:11;23.90;54.70
10121;DHT22;5100;45.176;5.714;2022-09-12T12:47:41;24.10;55.30
10121;DHT22;5100;45.176;5.714;2022-09-12T12:53:01;24.20;55.10
10121;DHT22;5100;45.176;5.714;2022-09-12T13:01:08;24.30;55.20
10121;DHT22;5100;45.176;5.714;2022-09-12T13:03:36;24.30;55.30
10121;DHT22;5100;45.176;5.714;2022-09-12T13:06:08;24.30;55.40
10121;DHT22;5100;45.176;5.714;2022-09-12T13:08:55;24.40;55.40
10121;DHT22;5100;45.176;5.714;2022-09-12T13:11:43;24.40;55.00
10121;DHT22;5100;45.176;5.714;2022-09-12T13:17:28;24.50;54.50
10121;DHT22;5100;45.176;5.714;2022-09-12T13:20:25;24.60;54.50
10121;DHT22;5100;45.176;5.714;2022-09-12T13:22:51;24.60;54.70
10121;DHT22;5100;45.176;5.714;2022-09-12T13:25:22;24.70;54.70
10121;DHT22;5100;45.176;5.714;2022-09-12T13:30:29;24.80;54.50
10121;DHT22;5100;45.176;5.714;2022-09-12T13:33:01;24.80;54.60
10121;DHT22;5100;45.176;5.714;2022-09-12T13:44:08;25.00;54.40
10121;DHT22;5100;45.176;5.714;2022-09-12T13:46:36;25.00;54.40
10121;DHT22;5100;45.176;5.714;2022-09-12T13:49:35;25.00;54.30
10121;DHT22;5100;45.176;5.714;2022-09-12T13:52:06;25.10;54.40
10121;DHT22;5100;45.176;5.714;2022-09-12T13:54:35;25.10;54.50
10121;DHT22;5100;45.176;5.714;2022-09-12T13:57:03;25.10;54.50
10121;DHT22;5100;45.176;5.714;2022-09-12T13:59:40;25.10;54.60
10121;DHT22;5100;45.176;5.714;2022-09-12T14:02:22;25.20;54.50
10121;DHT22;5100;45.176;5.714;2022-09-12T14:04:51;25.20;54.60
10121;DHT22;5100;45.176;5.714;2022-09-12T14:07:50;25.20;54.60
10121;DHT22;5100;45.176;5.714;2022-09-12T14:10:26;25.20;54.60
10121;DHT22;5100;45.176;5.714;2022-09-12T14:12:53;25.20;54.70
10121;DHT22;5100;45.176;5.714;2022-09-12T14:15:24;25.20;54.80
10121;DHT22;5100;45.176;5.714;2022-09-12T14:17:55;25.20;55.00
10121;DHT22;5100;45.176;5.714;2022-09-12T14:20:23;25.30;55.10
10121;DHT22;5100;45.176;5.714;2022-09-12T14:22:50;25.30;55.30
10121;DHT22;5100;45.176;5.714;2022-09-12T14:25:19;25.30;55.50
10121;DHT22;5100;45.176;5.714;2022-09-12T14:27:51;25.30;55.60
10121;DHT22;5100;45.176;5.714;2022-09-12T14:30:28;25.30;55.70
10121;DHT22;5100;45.176;5.714;2022-09-12T14:35:28;25.40;55.70
10121;DHT22;5100;45.176;5.714;2022-09-12T14:37:55;25.40;55.70
10121;DHT22;5100;45.176;5.714;2022-09-12T14:40:22;25.40;55.80
10121;DHT22;5100;45.176;5.714;2022-09-12T14:42:50;25.40;55.80
10121;DHT22;5100;45.176;5.714;2022-09-12T14:45:26;25.40;56.00
10121;DHT22;5100;45.176;5.714;2022-09-12T14:47:54;25.40;56.10
10121;DHT22;5100;45.176;5.714;2022-09-12T14:50:23;25.40;56.10
10121;DHT22;5100;45.176;5.714;2022-09-12T14:53:51;25.50;56.20
10121;DHT22;5100;45.176;5.714;2022-09-12T14:56:03;25.50;56.30
10121;DHT22;5100;45.176;5.714;2022-09-12T14:58:30;25.50;56.50
10121;DHT22;5100;45.176;5.714;2022-09-12T15:03:47;25.50;56.60
10121;DHT22;5100;45.176;5.714;2022-09-12T15:06:28;25.50;56.70
10121;DHT22;5100;45.176;5.714;2022-09-12T15:08:57;25.50;56.80
10121;DHT22;5100;45.176;5.714;2022-09-12T15:11:24;25.60;57.00
10121;DHT22;5100;45.176;5.714;2022-09-12T15:13:50;25.60;57.00
10121;DHT22;5100;45.176;5.714;2022-09-12T15:16:17;25.60;56.90
10121;DHT22;5100;45.176;5.714;2022-09-12T15:18:43;25.60;57.00
10121;DHT22;5100;45.176;5.714;2022-09-12T15:21:15;25.60;57.10
10121;DHT22;5100;45.176;5.714;2022-09-12T15:23:50;25.70;57.20
10121;DHT22;5100;45.176;5.714;2022-09-12T15:26:19;25.70;57.10
10121;DHT22;5100;45.176;5.714;2022-09-12T15:28:45;25.70;57.00
10121;DHT22;5100;45.176;5.714;2022-09-12T15:31:24;25.70;57.00
10121;DHT22;5100;45.176;5.714;2022-09-12T15:33:51;25.70;56.90
10121;DHT22;5100;45.176;5.714;2022-09-12T15:36:19;25.70;56.90
10121;DHT22;5100;45.176;5.714;2022-09-12T15:38:46;25.70;56.90
10121;DHT22;5100;45.176;5.714;2022-09-12T15:41:18;25.70;57.00
10121;DHT22;5100;45.176;5.714;2022-09-12T15:43:45;25.70;57.00
10121;DHT22;5100;45.176;5.714;2022-09-12T15:46:13;25.80;57.10
10121;DHT22;5100;45.176;5.714;2022-09-12T15:48:39;25.80;57.10
10121;DHT22;5100;45.176;5.714;2022-09-12T15:51:14;25.80;57.10
10121;DHT22;5100;45.176;5.714;2022-09-12T15:53:42;25.80;57.00
10121;DHT22;5100;45.176;5.714;2022-09-12T15:56:08;25.80;56.90
10121;DHT22;5100;45.176;5.714;2022-09-12T15:58:34;25.80;56.90
10121;DHT22;5100;45.176;5.714;2022-09-12T16:01:01;25.80;56.90
10121;DHT22;5100;45.176;5.714;2022-09-12T16:03:29;25.80;57.00
10121;DHT22;5100;45.176;5.714;2022-09-12T16:06:02;25.80;57.00
10121;DHT22;5100;45.176;5.714;2022-09-12T16:08:30;25.80;57.00
10121;DHT22;5100;45.176;5.714;2022-09-12T16:10:59;25.80;57.00
10121;DHT22;5100;45.176;5.714;2022-09-12T16:13:26;25.90;57.00
10121;DHT22;5100;45.176;5.714;2022-09-12T16:15:56;25.90;56.90
10121;DHT22;5100;45.176;5.714;2022-09-12T16:18:22;25.90;56.90
10121;DHT22;5100;45.176;5.714;2022-09-12T16:20:53;25.90;56.90
10121;DHT22;5100;45.176;5.714;2022-09-12T16:23:19;25.90;56.80
10121;DHT22;5100;45.176;5.714;2022-09-12T16:25:58;25.90;56.70
10121;DHT22;5100;45.176;5.714;2022-09-12T16:28:25;25.90;56.70
10121;DHT22;5100;45.176;5.714;2022-09-12T16:31:00;26.00;56.70
10121;DHT22;5100;45.176;5.714;2022-09-12T16:33:28;26.00;56.70
10121;DHT22;5100;45.176;5.714;2022-09-12T16:36:06;26.00;56.70
10121;DHT22;5100;45.176;5.714;2022-09-12T16:38:33;26.00;56.80
10121;DHT22;5100;45.176;5.714;2022-09-12T16:41:05;26.00;56.80
10121;DHT22;5100;45.176;5.714;2022-09-12T16:43:32;26.00;56.80
10121;DHT22;5100;45.176;5.714;2022-09-12T16:48:37;26.00;56.70
10121;DHT22;5100;45.176;5.714;2022-09-12T16:51:06;26.00;56.80
10121;DHT22;5100;45.176;5.714;2022-09-12T16:53:34;25.90;56.70
10121;DHT22;5100;45.176;5.714;2022-09-12T16:56:03;25.90;56.60
10121;DHT22;5100;45.176;5.714;2022-09-12T16:58:35;25.90;56.70
10121;DHT22;5100;45.176;5.714;2022-09-12T17:01:04;25.90;56.70
10121;DHT22;5100;45.176;5.714;2022-09-12T17:03:31;25.90;56.70
10121;DHT22;5100;45.176;5.714;2022-09-12T17:06:03;25.90;56.80
10121;DHT22;5100;45.176;5.714;2022-09-12T17:08:29;26.00;56.60
10121;DHT22;5100;45.176;5.714;2022-09-12T17:11:03;26.00;56.80
10121;DHT22;5100;45.176;5.714;2022-09-12T17:13:31;26.00;57.10
10121;DHT22;5100;45.176;5.714;2022-09-12T17:15:57;26.00;57.40
10121;DHT22;5100;45.176;5.714;2022-09-12T17:18:24;26.00;57.40
10121;DHT22;5100;45.176;5.714;2022-09-12T17:20:50;26.00;57.60
10121;DHT22;5100;45.176;5.714;2022-09-12T17:23:16;26.00;57.70
10121;DHT22;5100;45.176;5.714;2022-09-12T17:25:49;26.10;57.80
10121;DHT22;5100;45.176;5.714;2022-09-12T17:28:19;26.10;57.80
10121;DHT22;5100;45.176;5.714;2022-09-12T17:30:46;26.10;57.90
10121;DHT22;5100;45.176;5.714;2022-09-12T17:33:12;26.10;57.80
10121;DHT22;5100;45.176;5.714;2022-09-12T17:35:39;26.20;57.90
10121;DHT22;5100;45.176;5.714;2022-09-12T17:38:07;26.20;58.00
10121;DHT22;5100;45.176;5.714;2022-09-12T17:40:36;26.10;58.10
10121;DHT22;5100;45.176;5.714;2022-09-12T17:43:03;26.10;58.00
10121;DHT22;5100;45.176;5.714;2022-09-12T17:45:29;26.10;58.00
10121;DHT22;5100;45.176;5.714;2022-09-12T17:47:55;26.10;58.00
10121;DHT22;5100;45.176;5.714;2022-09-12T17:50:21;26.10;57.90
10121;DHT22;5100;45.176;5.714;2022-09-12T17:52:47;26.00;58.00
10121;DHT22;5100;45.176;5.714;2022-09-12T17:55:13;26.00;58.00
10121;DHT22;5100;45.176;5.714;2022-09-12T17:57:40;26.00;58.00
10121;DHT22;5100;45.176;5.714;2022-09-12T18:00:07;25.90;58.10
10121;DHT22;5100;45.176;5.714;2022-09-12T18:02:37;25.90;58.20
10121;DHT22;5100;45.176;5.714;2022-09-12T18:05:04;25.90;58.30
10121;DHT22;5100;45.176;5.714;2022-09-12T18:07:31;25.80;58.40
10121;DHT22;5100;45.176;5.714;2022-09-12T18:09:57;25.80;58.60
10121;DHT22;5100;45.176;5.714;2022-09-12T18:12:23;25.70;58.70
10121;DHT22;5100;45.176;5.714;2022-09-12T18:14:50;25.70;58.90
10121;DHT22;5100;45.176;5.714;2022-09-12T18:17:16;25.70;59.00
10121;DHT22;5100;45.176;5.714;2022-09-12T18:19:43;25.70;59.10
10121;DHT22;5100;45.176;5.714;2022-09-12T18:22:10;25.70;59.40
10121;DHT22;5100;45.176;5.714;2022-09-12T18:24:36;25.60;59.60
10121;DHT22;5100;45.176;5.714;2022-09-12T18:27:02;25.60;59.70
10121;DHT22;5100;45.176;5.714;2022-09-12T18:29:29;25.60;59.70
10121;DHT22;5100;45.176;5.714;2022-09-12T18:31:55;25.50;59.80
10121;DHT22;5100;45.176;5.714;2022-09-12T18:34:21;25.50;59.90
10121;DHT22;5100;45.176;5.714;2022-09-12T18:36:49;25.50;60.10
10121;DHT22;5100;45.176;5.714;2022-09-12T18:39:16;25.50;60.10
10121;DHT22;5100;45.176;5.714;2022-09-12T18:41:42;25.40;60.10
10121;DHT22;5100;45.176;5.714;2022-09-12T18:44:09;25.40;60.20
10121;DHT22;5100;45.176;5.714;2022-09-12T18:46:36;25.40;60.30
10121;DHT22;5100;45.176;5.714;2022-09-12T18:49:03;25.30;60.40
10121;DHT22;5100;45.176;5.714;2022-09-12T18:51:34;25.30;60.50
10121;DHT22;5100;45.176;5.714;2022-09-12T18:54:03;25.30;60.50
10121;DHT22;5100;45.176;5.714;2022-09-12T18:56:32;25.30;60.50
10121;DHT22;5100;45.176;5.714;2022-09-12T18:59:00;25.20;60.60
10121;DHT22;5100;45.176;5.714;2022-09-12T19:01:29;25.20;60.60
10121;DHT22;5100;45.176;5.714;2022-09-12T19:03:56;25.20;60.70
10121;DHT22;5100;45.176;5.714;2022-09-12T19:06:24;25.20;60.70
10121;DHT22;5100;45.176;5.714;2022-09-12T19:08:51;25.20;60.80